Create Tblcommutelog Verified Points Advance Search
| # | Trip ID | Id Commuter | Trip Date | Trip Num | Current Lat | Current Lng | Delta Distance | Current Time | Activity | Activity Confidence | Current Speed | |
|---|---|---|---|---|---|---|---|---|---|---|---|---|
| 71121 | 251124_760249_16513536_0919 | 760249 | (not set) | (not set) | 38.8838531 | -77.0048637 | 0.5546 | 2025-11-24 09:26:58 | on_bicycle | 100 | 1.3634697399126 | |
| 71122 | 251124_786552_16421763_0857 | 786552 | (not set) | (not set) | 38.989510953441 | -77.026779219679 | 8.7039 | 2025-11-24 09:31:07 | in_vehicle | 100 | 11.001636163688 | |
| 71123 | 251124_786552_16421763_0857 | 786552 | (not set) | (not set) | 38.984099106719 | -77.022681953263 | 9.1381 | 2025-11-24 09:31:31 | in_vehicle | 100 | 14.358900998686 | |
| 71124 | 251124_757618_16448335_0921 | 757618 | (not set) | (not set) | 38.8922329 | -77.0142621 | 2.1851 | 2025-11-24 09:31:49 | in_vehicle | 100 | 3.8713599828337 | |
| 71125 | 251124_775216_16453406_0903 | 775216 | (not set) | (not set) | 38.998227257263 | -76.922048426864 | 2.8981 | 2025-11-24 09:32:26 | in_vehicle | 100 | 7.6980160397686 | |
| 71126 | 251124_761648_16500693_0923 | 761648 | (not set) | (not set) | 38.935123231751 | -76.973593756575 | 1.3076 | 2025-11-24 09:32:46 | on_bicycle | 100 | 2.7939953686733 | |
| 71127 | 251124_757618_16448335_0921 | 757618 | (not set) | (not set) | 38.893021 | -77.0205832 | 2.5371 | 2025-11-24 09:33:07 | in_vehicle | 100 | 2.8476400797518 | |
| 71128 | 251124_602545_16470472_0848 | 602545 | (not set) | (not set) | 38.979374891201 | -76.927939008703 | 5.1296 | 2025-11-24 09:33:32 | in_vehicle | 100 | 6.7145296699956 | |
| 71129 | 251124_789569_16428277_0720 | 789569 | (not set) | (not set) | 39.2877364 | -76.6203533 | 2.5884 | 2025-11-24 08:10:01 | still | 100 | 2.7537618353644 | |
| 71130 | 251124_777802_16486967_0820 | 777802 | (not set) | (not set) | 38.9609867 | -77.1892639 | 20.3393 | 2025-11-24 08:56:35 | in_vehicle | 100 | 11.868892326124 | |
| 71131 | 251124_777802_16486967_0820 | 777802 | (not set) | (not set) | 38.9638618 | -77.1707427 | 24.011 | 2025-11-24 09:01:53 | in_vehicle | 100 | 9.6292256385956 | |
| 71132 | 251124_777802_16486967_0820 | 777802 | (not set) | (not set) | 38.928485 | -77.2129769 | 27.7395 | 2025-11-24 09:05:52 | in_vehicle | 100 | 3.5271397534131 | |
| 71133 | 251124_789661_6438355_0859 | 789661 | (not set) | (not set) | 38.9064503 | -77.00813 | 0 | 2025-11-24 09:14:46 | walking | 100 | -0.44703925898772 | |
| 71134 | 251124_753795_16499475_0831 | 753795 | (not set) | (not set) | 38.898109003331 | -77.02867031552 | 12.0435 | 2025-11-24 09:14:55 | on_foot | 100 | -0.44703925898772 | |
| 71135 | 251124_789661_6438355_0858 | 789661 | (not set) | (not set) | 38.906441 | -77.0081485 | 0 | 2025-11-24 09:15:09 | still | 100 | 0.013411177769632 | |
| 71136 | 251124_772498_16490104_0902 | 772498 | (not set) | (not set) | 38.886903571747 | -76.977065894973 | 0.1859 | 2025-11-24 09:15:34 | unknown | 100 | -0.44703925898772 | |
| 71137 | 251124_780789_16421763_0823 | 780789 | (not set) | (not set) | 38.899704009772 | -77.042595013472 | 33.201 | 2025-11-24 09:16:01 | unknown | 100 | -0.44703925898772 | |
| 71138 | 251124_753795_16499475_0831 | 753795 | (not set) | (not set) | 38.898093899476 | -77.029645587869 | 12.0962 | 2025-11-24 09:16:20 | on_foot | 100 | -0.44703925898772 | |
| 71139 | 251124_783727_16450333_0907 | 783727 | (not set) | (not set) | 39.056451319266 | -77.118890465781 | 0.2731 | 2025-11-24 09:16:26 | on_foot | 100 | 0.78678909581839 | |
| 71140 | 251124_788500_16500126_0902 | 788500 | (not set) | (not set) | 38.933439584024 | -76.994925578861 | 0.6153 | 2025-11-24 09:16:32 | on_foot | 100 | 0 |